createdAt,value
2018-10-21T00:01:04.032Z,90.14
2018-10-21T00:03:32.923Z,89.56
2018-10-21T00:06:01.801Z,89.04
2018-10-21T00:08:30.788Z,89.66
2018-10-21T00:10:59.675Z,90.25
2018-10-21T00:13:28.555Z,90.11
2018-10-21T00:15:57.456Z,90.79
2018-10-21T00:18:26.343Z,89.52
2018-10-21T00:20:55.221Z,90.67
2018-10-21T00:23:24.164Z,90.39
2018-10-21T00:25:53.092Z,91.06
2018-10-21T00:28:21.959Z,89.82
2018-10-21T00:30:50.838Z,90.66
2018-10-21T00:33:19.858Z,91.04
2018-10-21T00:35:48.787Z,90.15
2018-10-21T00:38:17.676Z,90.80
2018-10-21T00:40:46.571Z,90.38
2018-10-21T00:43:15.435Z,90.00
2018-10-21T00:45:44.299Z,91.06
2018-10-21T00:48:13.185Z,91.20
2018-10-21T00:50:42.096Z,90.46
2018-10-21T00:53:10.997Z,91.36
2018-10-21T00:55:39.885Z,91.09
2018-10-21T00:58:08.763Z,90.79
2018-10-21T01:00:37.652Z,91.27
2018-10-21T01:03:06.835Z,91.09
2018-10-21T01:05:35.704Z,90.40
2018-10-21T01:08:04.592Z,90.09
2018-10-21T01:10:33.468Z,90.98
2018-10-21T01:13:02.357Z,90.24
2018-10-21T01:15:31.245Z,90.66
2018-10-21T01:18:00.131Z,90.39
2018-10-21T01:20:29.103Z,89.97
2018-10-21T01:22:57.946Z,90.16
2018-10-21T01:25:26.845Z,90.43
2018-10-21T01:27:55.657Z,90.17
2018-10-21T01:30:24.501Z,90.69
2018-10-21T01:32:53.370Z,90.30
2018-10-21T01:35:22.213Z,90.61
2018-10-21T01:37:51.036Z,90.77
2018-10-21T01:40:26.977Z,90.74
2018-10-21T01:42:55.901Z,90.73
2018-10-21T01:45:25.353Z,90.81
2018-10-21T01:47:54.327Z,92.33
2018-10-21T01:50:23.802Z,90.50
2018-10-21T01:52:52.706Z,91.40
2018-10-21T01:55:21.585Z,91.34
2018-10-21T01:57:50.413Z,91.97
2018-10-21T02:00:19.341Z,92.05
2018-10-21T02:02:48.145Z,92.23
2018-10-21T02:05:16.994Z,91.89
2018-10-21T02:07:45.832Z,92.20
2018-10-21T02:10:14.670Z,92.16
2018-10-21T02:12:43.485Z,91.61
2018-10-21T02:15:13.104Z,91.61
2018-10-21T02:17:42.115Z,93.16
2018-10-21T02:20:12.117Z,92.63
2018-10-21T02:22:41.719Z,93.02
2018-10-21T02:25:10.721Z,91.79
2018-10-21T02:27:40.330Z,92.34
2018-10-21T02:30:13.183Z,91.42
2018-10-21T02:32:42.410Z,91.38
2018-10-21T02:35:12.107Z,92.36
2018-10-21T02:37:41.325Z,92.26
2018-10-21T02:41:28.346Z,92.07
2018-10-21T02:43:57.484Z,91.66
2018-10-21T02:46:26.590Z,91.78
2018-10-21T02:48:56.645Z,92.91
2018-10-21T02:51:25.999Z,93.57
2018-10-21T02:53:55.228Z,93.79
2018-10-21T02:56:24.293Z,92.86
2018-10-21T02:58:53.537Z,93.49
2018-10-21T03:01:22.775Z,93.37
2018-10-21T03:03:51.917Z,93.33
2018-10-21T03:06:21.217Z,93.63
2018-10-21T03:08:50.544Z,92.89
2018-10-21T03:11:19.670Z,92.89
2018-10-21T03:13:48.882Z,92.71
2018-10-21T03:16:17.963Z,93.34
2018-10-21T03:18:47.273Z,93.34
2018-10-21T03:21:16.523Z,94.04
2018-10-21T03:23:46.118Z,93.20
2018-10-21T03:26:15.263Z,92.82
2018-10-21T03:28:44.546Z,93.03
2018-10-21T03:31:13.814Z,93.49
2018-10-21T03:33:43.346Z,93.49
2018-10-21T03:36:12.301Z,94.54
2018-10-21T03:38:41.610Z,93.92
2018-10-21T03:41:10.857Z,94.00
2018-10-21T03:43:46.349Z,94.21
2018-10-21T03:46:16.282Z,92.97
2018-10-21T03:48:45.469Z,94.49
2018-10-21T03:51:14.984Z,93.71
2018-10-21T03:53:44.218Z,95.14
2018-10-21T03:56:13.565Z,94.27
2018-10-21T03:58:42.841Z,94.21
2018-10-21T04:01:12.188Z,94.05
2018-10-21T04:03:41.426Z,94.36
2018-10-21T04:06:10.663Z,94.46
2018-10-21T04:08:39.966Z,93.28
2018-10-21T04:11:09.166Z,92.43
2018-10-21T04:13:38.486Z,92.51
2018-10-21T04:16:07.810Z,92.01
2018-10-21T04:18:37.054Z,93.02
2018-10-21T04:21:06.321Z,92.61
2018-10-21T04:23:35.145Z,92.25
2018-10-21T04:26:03.985Z,91.79
2018-10-21T04:28:32.785Z,90.70
2018-10-21T04:31:01.596Z,89.67
2018-10-21T04:33:45.695Z,89.30
2018-10-21T04:36:18.425Z,89.65
2018-10-21T04:40:03.179Z,89.29
2018-10-21T04:42:32.037Z,89.07
2018-10-21T04:45:01.419Z,88.38
2018-10-21T04:47:30.577Z,88.34
2018-10-21T04:49:59.421Z,88.34
2018-10-21T04:52:29.316Z,88.66
2018-10-21T04:55:03.177Z,88.04
2018-10-21T04:57:32.065Z,88.04
2018-10-21T05:00:01.132Z,88.32
2018-10-21T05:02:30.925Z,89.40
2018-10-21T05:05:00.000Z,89.43
2018-10-21T05:07:28.853Z,89.30
2018-10-21T05:09:57.659Z,89.35
2018-10-21T05:12:26.529Z,88.90
2018-10-21T05:14:55.345Z,89.39
2018-10-21T05:17:24.165Z,89.15
2018-10-21T05:19:53.002Z,89.43
2018-10-21T05:22:21.825Z,90.00
2018-10-21T05:24:50.726Z,90.13
2018-10-21T05:27:19.538Z,90.76
2018-10-21T05:29:48.355Z,90.12
2018-10-21T05:32:17.185Z,89.05
2018-10-21T05:34:52.406Z,88.05
2018-10-21T05:37:21.229Z,87.88
2018-10-21T05:39:50.030Z,87.31
2018-10-21T05:42:18.831Z,86.57
2018-10-21T05:44:47.642Z,86.25
2018-10-21T05:47:16.516Z,86.22
2018-10-21T05:49:45.294Z,86.24
2018-10-21T05:52:14.130Z,86.67
2018-10-21T05:54:43.862Z,87.38
2018-10-21T05:57:12.682Z,87.25
2018-10-21T05:59:41.493Z,88.98
2018-10-21T06:02:10.345Z,88.45
2018-10-21T06:04:39.166Z,88.15
2018-10-21T06:07:08.119Z,86.78
2018-10-21T06:09:37.258Z,86.33
2018-10-21T06:12:06.443Z,86.70
2018-10-21T06:14:35.702Z,86.98
2018-10-21T06:17:10.872Z,86.41
2018-10-21T06:19:43.170Z,85.92
2018-10-21T06:22:12.562Z,85.02
2018-10-21T06:24:41.750Z,85.20
2018-10-21T06:27:10.959Z,85.06
2018-10-21T06:29:40.162Z,85.39
2018-10-21T06:32:09.341Z,85.69
2018-10-21T06:34:38.539Z,84.96
2018-10-21T06:37:07.803Z,84.48
2018-10-21T06:39:36.988Z,84.03
2018-10-21T06:42:06.377Z,83.71
2018-10-21T06:44:35.543Z,83.79
2018-10-21T06:47:04.784Z,83.26
2018-10-21T06:49:33.985Z,82.96
2018-10-21T06:52:03.222Z,83.54
2018-10-21T06:54:32.442Z,83.74
2018-10-21T06:57:01.740Z,84.07
2018-10-21T06:59:30.485Z,83.65
2018-10-21T07:01:59.294Z,83.55
2018-10-21T07:04:28.152Z,83.17
2018-10-21T07:06:56.945Z,81.49
2018-10-21T07:09:25.754Z,81.78
2018-10-21T07:11:54.564Z,81.37
2018-10-21T07:14:23.367Z,81.77
2018-10-21T07:16:52.292Z,80.93
2018-10-21T07:19:21.013Z,81.21
2018-10-21T07:21:49.822Z,80.67
2018-10-21T07:24:18.630Z,80.32
2018-10-21T07:26:47.474Z,80.46
2018-10-21T07:29:16.331Z,80.63
2018-10-21T07:31:45.141Z,80.18
2018-10-21T07:34:14.035Z,79.51
2018-10-21T07:36:42.801Z,79.55
2018-10-21T07:39:12.109Z,78.56
2018-10-21T07:41:40.917Z,78.58
2018-10-21T07:44:09.710Z,78.46
2018-10-21T07:46:38.841Z,78.26
2018-10-21T07:49:07.685Z,78.61
2018-10-21T07:51:36.481Z,77.91
2018-10-21T07:54:05.333Z,78.32
2018-10-21T07:56:34.154Z,77.14
2018-10-21T07:59:02.958Z,77.86
2018-10-21T08:01:31.801Z,77.60
2018-10-21T08:04:00.641Z,76.89
2018-10-21T08:06:40.515Z,76.77
2018-10-21T08:09:11.078Z,76.44
2018-10-21T08:11:39.932Z,74.79
2018-10-21T08:14:08.778Z,75.67
2018-10-21T08:16:37.589Z,73.95
2018-10-21T08:19:06.629Z,72.63
2018-10-21T08:21:35.441Z,71.34
2018-10-21T08:24:04.266Z,71.56
2018-10-21T08:26:33.102Z,71.19
2018-10-21T08:29:01.925Z,72.28
2018-10-21T08:31:30.745Z,71.10
2018-10-21T08:33:59.618Z,69.84
2018-10-21T08:36:28.398Z,70.06
2018-10-21T08:38:57.213Z,68.50
2018-10-21T08:41:26.022Z,67.92
2018-10-21T08:43:54.840Z,68.72
2018-10-21T08:46:23.851Z,68.94
2018-10-21T08:48:52.541Z,68.30
2018-10-21T08:51:21.355Z,67.60
2018-10-21T08:53:50.194Z,66.72
2018-10-21T08:56:18.987Z,64.80
2018-10-21T08:58:47.816Z,63.14
2018-10-21T09:01:16.620Z,63.98
2018-10-21T09:03:45.453Z,63.04
2018-10-21T09:06:14.274Z,61.34
2018-10-21T09:08:43.062Z,60.12
2018-10-21T09:11:11.898Z,60.62
2018-10-21T09:13:40.726Z,59.23
2018-10-21T09:16:09.608Z,58.66
2018-10-21T09:18:38.397Z,58.13
2018-10-21T09:21:07.201Z,57.68
2018-10-21T09:23:36.048Z,56.76
2018-10-21T09:26:04.862Z,55.03
2018-10-21T09:28:33.720Z,56.58
2018-10-21T09:31:02.643Z,57.01
2018-10-21T09:33:31.551Z,55.96
2018-10-21T09:36:00.472Z,52.06
2018-10-21T09:38:29.298Z,50.17
2018-10-21T09:40:58.256Z,51.45
2018-10-21T09:43:27.168Z,49.13
2018-10-21T09:45:56.086Z,49.79
2018-10-21T09:48:24.986Z,48.78
2018-10-21T09:50:53.818Z,47.72
2018-10-21T09:53:22.646Z,47.96
2018-10-21T09:55:51.461Z,47.62
2018-10-21T09:58:20.399Z,48.19
2018-10-21T10:00:54.451Z,46.13
2018-10-21T10:03:23.371Z,46.96
2018-10-21T10:05:52.266Z,45.25
2018-10-21T10:08:21.090Z,43.39
2018-10-21T10:10:49.925Z,44.17
2018-10-21T10:13:18.808Z,43.89
2018-10-21T10:15:47.586Z,45.96
2018-10-21T10:18:16.426Z,44.95
2018-10-21T10:20:45.228Z,44.70
2018-10-21T10:23:14.105Z,44.94
2018-10-21T10:25:42.940Z,43.92
2018-10-21T10:28:11.796Z,43.65
2018-10-21T10:30:40.650Z,42.62
2018-10-21T10:33:09.438Z,43.44
2018-10-21T10:35:38.251Z,41.84
2018-10-21T10:38:07.062Z,43.46
2018-10-21T10:40:35.910Z,41.34
2018-10-21T10:43:04.777Z,42.32
2018-10-21T10:45:33.554Z,42.10
2018-10-21T10:48:02.377Z,41.28
2018-10-21T10:50:31.195Z,41.09
2018-10-21T10:53:00.052Z,40.22
2018-10-21T10:55:33.991Z,40.83
2018-10-21T10:58:02.817Z,39.24
2018-10-21T11:00:31.654Z,41.24
2018-10-21T11:03:00.450Z,38.75
2018-10-21T11:05:29.306Z,38.31
2018-10-21T11:07:58.169Z,39.36
2018-10-21T11:10:26.994Z,40.13
2018-10-21T11:12:55.845Z,40.86
2018-10-21T11:15:24.730Z,39.22
2018-10-21T11:17:53.525Z,37.95
2018-10-21T11:20:22.352Z,39.21
2018-10-21T11:22:51.248Z,38.13
2018-10-21T11:25:20.057Z,38.43
2018-10-21T11:27:48.874Z,38.56
2018-10-21T11:30:17.697Z,37.29
2018-10-21T11:32:46.516Z,39.11
2018-10-21T11:35:15.394Z,38.77
2018-10-21T11:37:44.308Z,37.35
2018-10-21T11:40:13.152Z,37.76
2018-10-21T11:42:41.915Z,37.81
2018-10-21T11:45:10.786Z,37.30
2018-10-21T11:47:39.629Z,36.52
2018-10-21T11:50:08.537Z,35.64
2018-10-21T11:52:37.503Z,36.44
2018-10-21T11:55:07.490Z,36.59
2018-10-21T11:57:36.297Z,36.91
2018-10-21T12:00:05.549Z,36.25
2018-10-21T12:02:34.358Z,37.13
2018-10-21T12:05:03.174Z,36.33
2018-10-21T12:07:32.013Z,37.75
2018-10-21T12:10:00.839Z,37.91
2018-10-21T12:12:29.665Z,38.41
2018-10-21T12:14:58.477Z,37.25
2018-10-21T12:17:33.854Z,36.36
2018-10-21T12:20:02.784Z,36.75
2018-10-21T12:22:31.545Z,36.48
2018-10-21T12:25:00.430Z,36.55
2018-10-21T12:27:29.193Z,35.55
2018-10-21T12:29:58.002Z,35.39
2018-10-21T12:32:26.815Z,36.27
2018-10-21T12:34:55.629Z,36.22
2018-10-21T12:37:24.593Z,34.66
2018-10-21T12:39:53.386Z,33.84
2018-10-21T12:42:22.212Z,35.06
2018-10-21T12:44:51.005Z,33.93
2018-10-21T12:47:19.826Z,34.83
2018-10-21T12:49:48.625Z,35.16
2018-10-21T12:52:17.515Z,35.89
2018-10-21T12:54:46.269Z,33.94
2018-10-21T12:57:15.077Z,35.18
2018-10-21T12:59:43.901Z,35.06
2018-10-21T13:02:12.772Z,35.90
2018-10-21T13:04:41.597Z,35.87
2018-10-21T13:07:10.450Z,35.21
2018-10-21T13:09:39.301Z,35.14
2018-10-21T13:12:08.115Z,35.20
2018-10-21T13:14:36.981Z,36.35
2018-10-21T13:17:05.955Z,37.14
2018-10-21T13:19:34.767Z,36.05
2018-10-21T13:22:03.647Z,36.86
2018-10-21T13:24:32.481Z,37.63
2018-10-21T13:27:01.300Z,35.28
2018-10-21T13:29:30.114Z,36.06
2018-10-21T13:31:58.906Z,35.83
2018-10-21T13:34:27.740Z,36.64
2018-10-21T13:36:56.608Z,37.58
2018-10-21T13:39:25.565Z,36.12
2018-10-21T13:41:54.387Z,36.82
2018-10-21T13:44:23.224Z,35.65
2018-10-21T13:46:52.034Z,37.29
2018-10-21T13:49:20.830Z,36.65
2018-10-21T13:51:49.724Z,38.83
2018-10-21T13:54:18.478Z,36.70
2018-10-21T13:56:47.290Z,38.43
2018-10-21T13:59:16.133Z,36.97
2018-10-21T14:01:44.916Z,36.96
2018-10-21T14:04:13.775Z,37.17
2018-10-21T14:06:42.596Z,35.96
2018-10-21T14:09:13.199Z,36.14
2018-10-21T14:11:42.087Z,36.72
2018-10-21T14:14:11.896Z,36.47
2018-10-21T14:16:41.144Z,36.99
2018-10-21T14:19:10.292Z,36.79
2018-10-21T14:21:39.290Z,37.07
2018-10-21T14:24:08.136Z,36.39
2018-10-21T14:26:37.036Z,38.39
2018-10-21T14:29:05.850Z,36.65
2018-10-21T14:31:34.662Z,38.26
2018-10-21T14:34:03.466Z,37.66
2018-10-21T14:36:32.310Z,37.75
2018-10-21T14:39:01.149Z,37.87
2018-10-21T14:41:29.953Z,38.18
2018-10-21T14:43:58.775Z,37.21
2018-10-21T14:46:27.645Z,37.50
2018-10-21T14:48:56.453Z,37.87
2018-10-21T14:51:25.399Z,37.29
2018-10-21T14:53:54.200Z,37.78
2018-10-21T14:56:23.693Z,37.10
2018-10-21T14:58:53.267Z,37.67
2018-10-21T15:01:22.091Z,38.87
2018-10-21T15:03:51.014Z,37.10
2018-10-21T15:06:19.869Z,37.82
2018-10-21T15:08:48.710Z,38.05
2018-10-21T15:11:17.810Z,37.08
2018-10-21T15:13:46.848Z,37.12
2018-10-21T15:16:15.767Z,36.32
2018-10-21T15:18:44.590Z,38.45
2018-10-21T15:21:13.406Z,38.91
2018-10-21T15:23:42.234Z,40.49
2018-10-21T15:26:11.143Z,40.12
2018-10-21T15:28:39.980Z,40.60
2018-10-21T15:31:08.818Z,41.26
2018-10-21T15:33:37.694Z,41.06
2018-10-21T15:36:06.656Z,39.72
2018-10-21T15:38:35.527Z,39.35
2018-10-21T15:41:04.359Z,39.41
2018-10-21T15:43:33.303Z,39.17
2018-10-21T15:46:02.196Z,39.00
2018-10-21T15:48:31.343Z,40.30
2018-10-21T15:51:00.246Z,40.62
2018-10-21T15:53:29.110Z,42.67
2018-10-21T15:55:58.034Z,43.96
2018-10-21T15:58:26.842Z,43.40
2018-10-21T16:00:55.725Z,44.54
2018-10-21T16:03:24.702Z,45.25
2018-10-21T16:05:53.762Z,46.11
2018-10-21T16:08:22.693Z,46.69
2018-10-21T16:10:51.515Z,48.02
2018-10-21T16:13:20.393Z,47.37
2018-10-21T16:15:49.624Z,48.53
2018-10-21T16:18:19.074Z,49.25
2018-10-21T16:20:48.229Z,48.45
2018-10-21T16:23:17.045Z,49.47
2018-10-21T16:25:46.962Z,49.79
2018-10-21T16:28:15.789Z,51.24
2018-10-21T16:30:45.102Z,51.93
2018-10-21T16:33:13.917Z,52.55
2018-10-21T16:35:42.745Z,53.15
2018-10-21T16:38:11.562Z,53.23
2018-10-21T16:40:40.466Z,53.18
2018-10-21T16:43:09.313Z,54.29
2018-10-21T16:45:38.118Z,54.84
2018-10-21T16:48:07.319Z,56.30
2018-10-21T16:50:37.740Z,56.37
2018-10-21T16:53:05.340Z,56.26
2018-10-21T16:55:34.153Z,57.64
2018-10-21T16:58:03.066Z,57.36
2018-10-21T17:00:32.069Z,58.68
2018-10-21T17:03:00.773Z,58.35
2018-10-21T17:05:29.610Z,58.73
2018-10-21T17:07:58.486Z,58.43
2018-10-21T17:10:27.708Z,58.46
2018-10-21T17:12:56.253Z,58.48
2018-10-21T17:15:25.042Z,59.47
2018-10-21T17:17:53.910Z,60.12
2018-10-21T17:20:22.796Z,60.51
2018-10-21T17:22:51.618Z,59.69
2018-10-21T17:25:23.309Z,60.41
2018-10-21T17:27:52.128Z,59.78
2018-10-21T17:30:21.011Z,60.88
2018-10-21T17:32:49.815Z,59.24
2018-10-21T17:35:18.723Z,57.95
2018-10-21T17:37:47.537Z,59.14
2018-10-21T17:40:17.417Z,60.19
2018-10-21T17:42:46.174Z,60.42
2018-10-21T17:45:15.879Z,61.71
2018-10-21T17:47:44.776Z,62.25
2018-10-21T17:50:15.274Z,60.49
2018-10-21T17:52:45.163Z,62.47
2018-10-21T17:55:14.667Z,62.82
2018-10-21T17:57:43.431Z,61.80
2018-10-21T18:00:13.306Z,64.15
2018-10-21T18:02:42.203Z,64.42
2018-10-21T18:05:12.663Z,65.20
2018-10-21T18:07:42.081Z,64.05
2018-10-21T18:10:11.838Z,65.04
2018-10-21T18:12:40.685Z,65.15
2018-10-21T18:15:10.177Z,66.14
2018-10-21T18:17:39.794Z,64.19
2018-10-21T18:20:10.098Z,65.47
2018-10-21T18:22:39.041Z,64.01
2018-10-21T18:25:09.139Z,63.99
2018-10-21T18:27:38.149Z,63.01
2018-10-21T18:30:08.303Z,65.43
2018-10-21T18:32:37.166Z,66.36
2018-10-21T18:35:07.255Z,66.55
2018-10-21T18:37:36.151Z,66.11
2018-10-21T18:40:05.512Z,67.61
2018-10-21T18:42:34.390Z,67.38
2018-10-21T18:45:03.450Z,66.83
2018-10-21T18:47:32.372Z,65.97
2018-10-21T18:50:01.183Z,65.75
2018-10-21T18:52:29.990Z,66.31
2018-10-21T18:54:58.958Z,67.38
2018-10-21T18:57:28.271Z,66.42
2018-10-21T18:59:57.236Z,67.78
2018-10-21T19:02:26.199Z,66.67
2018-10-21T19:04:55.254Z,68.09
2018-10-21T19:07:25.129Z,67.70
2018-10-21T19:09:54.496Z,68.31
2018-10-21T19:12:23.441Z,68.12
2018-10-21T19:14:52.387Z,68.66
2018-10-21T19:17:21.263Z,68.40
2018-10-21T19:19:50.121Z,69.91
2018-10-21T19:22:19.097Z,71.03
2018-10-21T19:24:47.969Z,69.77
2018-10-21T19:27:17.015Z,69.39
2018-10-21T19:29:46.184Z,69.83
2018-10-21T19:32:15.443Z,69.16
2018-10-21T19:34:45.005Z,69.88
2018-10-21T19:37:15.219Z,69.83
2018-10-21T19:39:44.408Z,68.85
2018-10-21T19:42:13.711Z,69.96
2018-10-21T19:44:42.858Z,70.44
2018-10-21T19:47:12.331Z,70.92
2018-10-21T19:49:41.576Z,70.85
2018-10-21T19:52:11.058Z,70.59
2018-10-21T19:54:40.306Z,70.41
2018-10-21T19:57:10.529Z,72.04
2018-10-21T19:59:39.921Z,71.88
2018-10-21T20:02:08.804Z,71.94
2018-10-21T20:04:37.801Z,71.12
2018-10-21T20:07:07.217Z,70.78
2018-10-21T20:09:36.441Z,71.85
2018-10-21T20:12:05.465Z,73.21
2018-10-21T20:14:35.287Z,72.23
2018-10-21T20:17:04.125Z,72.60
2018-10-21T20:19:32.954Z,73.63
2018-10-21T20:22:01.866Z,72.23
2018-10-21T20:24:30.781Z,73.01
2018-10-21T20:26:59.624Z,71.28
2018-10-21T20:29:28.822Z,73.13
2018-10-21T20:31:57.787Z,72.83
2018-10-21T20:34:26.666Z,72.03
2018-10-21T20:36:55.517Z,72.73
2018-10-21T20:39:24.346Z,72.92
2018-10-21T20:41:53.190Z,73.24
2018-10-21T20:44:22.242Z,71.89
2018-10-21T20:46:51.124Z,73.55
2018-10-21T20:49:19.952Z,74.26
2018-10-21T20:51:48.789Z,73.66
2018-10-21T20:54:17.679Z,74.58
2018-10-21T20:56:46.590Z,74.28
2018-10-21T20:59:15.932Z,73.72
2018-10-21T21:01:44.866Z,73.52
2018-10-21T21:04:13.737Z,74.57
2018-10-21T21:06:42.678Z,74.67
2018-10-21T21:09:11.529Z,75.19
2018-10-21T21:11:40.508Z,75.19
2018-10-21T21:14:09.504Z,75.48
2018-10-21T21:16:38.352Z,75.47
2018-10-21T21:19:07.192Z,74.84
2018-10-21T21:21:36.246Z,75.90
2018-10-21T21:24:05.352Z,74.96
2018-10-21T21:26:34.194Z,76.42
2018-10-21T21:29:03.010Z,76.04
2018-10-21T21:31:31.885Z,75.73
2018-10-21T21:34:00.722Z,76.80
2018-10-21T21:36:29.561Z,76.82
2018-10-21T21:38:58.380Z,76.42
2018-10-21T21:41:27.249Z,76.88
2018-10-21T21:43:56.071Z,76.31
2018-10-21T21:46:25.009Z,75.85
2018-10-21T21:48:53.822Z,77.00
2018-10-21T21:51:22.805Z,76.79
2018-10-21T21:53:51.698Z,75.63
2018-10-21T21:56:20.550Z,75.95
2018-10-21T21:58:50.147Z,75.99
2018-10-21T22:01:18.975Z,75.78
2018-10-21T22:03:47.850Z,76.06
2018-10-21T22:06:16.776Z,75.99
2018-10-21T22:08:45.986Z,76.03
2018-10-21T22:11:14.868Z,76.26
2018-10-21T22:13:43.705Z,75.97
2018-10-21T22:16:13.113Z,75.90
2018-10-21T22:18:41.960Z,75.98
2018-10-21T22:21:10.926Z,75.83
2018-10-21T22:23:39.769Z,76.27
2018-10-21T22:26:08.753Z,75.59
2018-10-21T22:28:37.590Z,76.73
2018-10-21T22:31:06.458Z,76.82
2018-10-21T22:33:35.326Z,77.74
2018-10-21T22:36:04.408Z,77.01
2018-10-21T22:38:33.199Z,75.92
2018-10-21T22:41:02.056Z,77.43
2018-10-21T22:43:30.895Z,76.49
2018-10-21T22:45:59.799Z,76.58
2018-10-21T22:48:28.719Z,77.26
2018-10-21T22:50:57.566Z,76.93
2018-10-21T22:53:26.447Z,77.28
2018-10-21T22:55:55.360Z,78.19
2018-10-21T22:58:24.191Z,77.11
2018-10-21T23:01:03.416Z,78.03
2018-10-21T23:03:32.221Z,76.94
2018-10-21T23:06:01.159Z,77.74
2018-10-21T23:08:29.922Z,78.50
2018-10-21T23:10:58.893Z,77.87
2018-10-21T23:13:27.723Z,77.54
2018-10-21T23:15:56.575Z,77.86
2018-10-21T23:18:25.793Z,78.55
2018-10-21T23:20:54.641Z,78.44
2018-10-21T23:23:23.493Z,77.77
2018-10-21T23:25:52.328Z,78.36
2018-10-21T23:28:21.131Z,77.35
2018-10-21T23:30:49.946Z,78.52
2018-10-21T23:33:19.094Z,78.21
2018-10-21T23:35:47.948Z,78.43
2018-10-21T23:38:16.782Z,78.60
2018-10-21T23:40:45.634Z,78.79
2018-10-21T23:43:14.463Z,77.83
2018-10-21T23:45:43.279Z,78.28
2018-10-21T23:48:12.235Z,77.97
2018-10-21T23:50:41.401Z,79.13
2018-10-21T23:53:10.231Z,78.75
2018-10-21T23:55:39.190Z,77.98
2018-10-21T23:58:08.320Z,77.82
